createdAt,value
2022-12-19T00:00:08.128Z,-8.27
2022-12-19T00:01:09.247Z,-8.22
2022-12-19T00:01:56.428Z,-8.05
2022-12-19T00:02:43.644Z,-7.98
2022-12-19T00:03:32.369Z,-8.31
2022-12-19T00:04:21.463Z,-8.51
2022-12-19T00:05:08.453Z,-8.42
2022-12-19T00:05:55.441Z,-8.44
2022-12-19T00:06:43.782Z,-8.64
2022-12-19T00:07:31.014Z,-8.70
2022-12-19T00:08:18.210Z,-8.62
2022-12-19T00:09:08.435Z,-8.69
2022-12-19T00:09:55.455Z,-8.76
2022-12-19T00:10:42.714Z,-8.54
2022-12-19T00:11:30.118Z,-8.44
2022-12-19T00:12:19.321Z,-8.33
2022-12-19T00:13:06.354Z,-8.30
2022-12-19T00:13:53.590Z,-8.29
2022-12-19T00:14:40.642Z,-8.30
2022-12-19T00:15:28.199Z,-8.47
2022-12-19T00:16:20.166Z,-8.39
2022-12-19T00:17:07.101Z,-8.27
2022-12-19T00:17:54.385Z,-8.17
2022-12-19T00:18:42.614Z,-8.16
2022-12-19T00:19:29.753Z,-8.17
2022-12-19T00:20:18.678Z,-8.09
2022-12-19T00:21:06.297Z,-8.13
2022-12-19T00:21:53.176Z,-8.04
2022-12-19T00:22:40.155Z,-8.13
2022-12-19T00:23:29.498Z,-8.05
2022-12-19T00:24:20.724Z,-7.95
2022-12-19T00:25:08.845Z,-7.97
2022-12-19T00:25:56.605Z,-7.97
2022-12-19T00:26:43.866Z,-7.89
2022-12-19T00:27:34.857Z,-7.92
2022-12-19T00:28:22.030Z,-7.83
2022-12-19T00:29:14.121Z,-7.76
2022-12-19T00:30:01.415Z,-7.74
2022-12-19T00:30:48.384Z,-7.83
2022-12-19T00:31:36.833Z,-7.87
2022-12-19T00:32:23.775Z,-7.84
2022-12-19T00:33:10.694Z,-7.92
2022-12-19T00:33:58.068Z,-7.89
2022-12-19T00:34:45.367Z,-7.73
2022-12-19T00:35:32.267Z,-7.83
2022-12-19T00:36:22.904Z,-7.93
2022-12-19T00:37:12.077Z,-7.77
2022-12-19T00:37:59.001Z,-7.76
2022-12-19T00:38:46.587Z,-7.71
2022-12-19T00:39:33.467Z,-7.71
2022-12-19T00:40:20.425Z,-7.76
2022-12-19T00:41:09.654Z,-7.70
2022-12-19T00:41:56.523Z,-7.71
2022-12-19T00:42:46.414Z,-7.77
2022-12-19T00:43:35.725Z,-7.88
2022-12-19T00:44:22.895Z,-7.82
2022-12-19T00:45:18.754Z,-7.75
2022-12-19T00:46:07.980Z,-7.83
2022-12-19T00:46:54.946Z,-7.85
2022-12-19T00:47:41.809Z,-7.87
2022-12-19T00:48:29.291Z,-7.84
2022-12-19T00:49:16.315Z,-7.76
2022-12-19T00:50:04.505Z,-7.66
2022-12-19T00:50:58.695Z,-7.92
2022-12-19T00:51:45.745Z,-7.83
2022-12-19T00:52:33.107Z,-7.75
2022-12-19T00:53:21.093Z,-7.75
2022-12-19T00:54:08.061Z,-7.73
2022-12-19T00:54:55.458Z,-7.80
2022-12-19T00:55:42.367Z,-7.72
2022-12-19T00:56:33.505Z,-7.68
2022-12-19T00:57:24.784Z,-7.59
2022-12-19T00:58:11.644Z,-7.54
2022-12-19T00:58:58.925Z,-7.56
2022-12-19T00:59:45.897Z,-7.49
2022-12-19T01:00:32.838Z,-7.54
2022-12-19T01:01:24.658Z,-7.63
2022-12-19T01:02:11.811Z,-7.80
2022-12-19T01:02:59.012Z,-7.82
2022-12-19T01:04:04.275Z,-7.77
2022-12-19T01:04:53.255Z,-7.76
2022-12-19T01:05:40.744Z,-7.73
2022-12-19T01:06:29.659Z,-7.67
2022-12-19T01:07:16.921Z,-7.67
2022-12-19T01:08:03.886Z,-7.60
2022-12-19T01:08:50.892Z,-7.59
2022-12-19T01:09:37.978Z,-7.64
2022-12-19T01:10:24.875Z,-7.71
2022-12-19T01:11:12.016Z,-7.72
2022-12-19T01:12:17.645Z,-7.74
2022-12-19T01:13:04.494Z,-7.67
2022-12-19T01:13:51.335Z,-7.78
2022-12-19T01:14:38.276Z,-7.83
2022-12-19T01:15:25.246Z,-7.91
2022-12-19T01:16:13.767Z,-8.21
2022-12-19T01:17:00.644Z,-8.31
2022-12-19T01:17:48.826Z,-8.33
2022-12-19T01:18:36.285Z,-8.39
2022-12-19T01:19:23.175Z,-8.35
2022-12-19T01:20:10.776Z,-8.19
2022-12-19T01:21:00.077Z,-8.05
2022-12-19T01:21:47.245Z,-8.13
2022-12-19T01:22:35.344Z,-7.97
2022-12-19T01:23:23.039Z,-7.86
2022-12-19T01:24:09.996Z,-8.00
2022-12-19T01:24:56.949Z,-7.96
2022-12-19T01:25:45.879Z,-7.92
2022-12-19T01:26:33.085Z,-7.92
2022-12-19T01:27:19.976Z,-7.93
2022-12-19T01:28:07.597Z,-7.85
2022-12-19T01:28:54.534Z,-7.85
2022-12-19T01:29:45.818Z,-8.03
2022-12-19T01:30:40.698Z,-8.01
2022-12-19T01:31:28.691Z,-7.99
2022-12-19T01:32:15.604Z,-8.03
2022-12-19T01:33:02.545Z,-7.94
2022-12-19T01:33:49.475Z,-8.01
2022-12-19T01:34:37.266Z,-7.93
2022-12-19T01:35:24.556Z,-7.96
2022-12-19T01:36:11.435Z,-7.83
2022-12-19T01:36:58.296Z,-7.93
2022-12-19T01:37:45.218Z,-7.90
2022-12-19T01:38:32.126Z,-7.99
2022-12-19T01:39:19.034Z,-7.94
2022-12-19T01:40:06.583Z,-8.01
2022-12-19T01:40:55.965Z,-8.00
2022-12-19T01:41:42.980Z,-8.12
2022-12-19T01:42:35.266Z,-8.17
2022-12-19T01:43:23.436Z,-8.14
2022-12-19T01:44:10.318Z,-8.06
2022-12-19T01:45:10.325Z,-8.15
2022-12-19T01:46:06.498Z,-8.12
2022-12-19T01:46:57.754Z,-8.22
2022-12-19T01:48:14.011Z,-8.13
2022-12-19T01:49:01.707Z,-8.07
2022-12-19T01:49:48.642Z,-8.03
2022-12-19T01:51:01.480Z,-8.08
2022-12-19T01:51:49.704Z,-8.21
2022-12-19T01:52:36.594Z,-8.15
2022-12-19T01:53:26.482Z,-8.35
2022-12-19T01:54:21.236Z,-8.35
2022-12-19T01:55:09.026Z,-8.41
2022-12-19T01:55:56.278Z,-8.40
2022-12-19T01:56:46.693Z,-8.32
2022-12-19T01:57:34.777Z,-8.30
2022-12-19T01:58:24.329Z,-8.33
2022-12-19T01:59:15.004Z,-8.22
2022-12-19T02:00:04.235Z,-8.19
2022-12-19T02:00:51.273Z,-8.33
2022-12-19T02:01:49.010Z,-8.29
2022-12-19T02:02:45.754Z,-8.40
2022-12-19T02:03:34.277Z,-8.48
2022-12-19T02:04:21.783Z,-8.35
2022-12-19T02:05:08.977Z,-8.40
2022-12-19T02:05:56.564Z,-8.32
2022-12-19T02:06:43.535Z,-8.27
2022-12-19T02:07:31.932Z,-8.11
2022-12-19T02:08:19.017Z,-8.14
2022-12-19T02:09:05.901Z,-8.07
2022-12-19T02:09:56.999Z,-8.26
2022-12-19T02:10:44.364Z,-8.16
2022-12-19T02:11:31.477Z,-8.16
2022-12-19T02:12:18.392Z,-8.37
2022-12-19T02:13:08.437Z,-8.34
2022-12-19T02:13:55.356Z,-8.44
2022-12-19T02:14:42.546Z,-8.32
2022-12-19T02:15:33.559Z,-8.36
2022-12-19T02:16:39.409Z,-8.26
2022-12-19T02:17:39.988Z,-8.42
2022-12-19T02:18:38.940Z,-8.35
2022-12-19T02:19:54.120Z,-8.25
2022-12-19T02:21:08.269Z,-8.38
2022-12-19T02:22:32.366Z,-8.21
2022-12-19T02:23:31.167Z,-8.14
2022-12-19T02:24:29.383Z,-8.07
2022-12-19T02:25:47.359Z,-8.27
2022-12-19T02:26:46.922Z,-8.24
2022-12-19T02:27:46.042Z,-8.30
2022-12-19T02:29:10.362Z,-8.44
2022-12-19T02:30:11.115Z,-8.35
2022-12-19T02:31:36.671Z,-8.36
2022-12-19T02:32:26.225Z,-8.37
2022-12-19T02:33:20.456Z,-8.36
2022-12-19T02:34:14.222Z,-8.42
2022-12-19T02:35:26.526Z,-8.45
2022-12-19T02:36:18.297Z,-8.32
2022-12-19T02:37:09.180Z,-8.07
2022-12-19T02:38:02.574Z,-8.15
2022-12-19T02:39:00.270Z,-8.14
2022-12-19T02:40:05.349Z,-8.27
2022-12-19T02:40:59.033Z,-8.33
2022-12-19T02:41:55.364Z,-8.39
2022-12-19T02:42:45.774Z,-8.37
2022-12-19T02:43:37.037Z,-8.36
2022-12-19T02:44:26.570Z,-8.41
2022-12-19T02:45:16.801Z,-8.40
2022-12-19T02:46:14.401Z,-8.36
2022-12-19T02:47:03.042Z,-8.33
2022-12-19T02:47:50.032Z,-8.31
2022-12-19T02:48:37.052Z,-8.38
2022-12-19T02:49:30.717Z,-8.29
2022-12-19T02:50:18.356Z,-8.17
2022-12-19T02:51:05.516Z,-8.21
2022-12-19T02:51:52.453Z,-8.08
2022-12-19T02:52:39.315Z,-8.09
2022-12-19T02:53:26.335Z,-8.15
2022-12-19T02:54:13.267Z,-8.13
2022-12-19T02:55:04.028Z,-8.06
2022-12-19T02:56:08.057Z,-8.08
2022-12-19T02:57:17.487Z,-8.06
2022-12-19T02:58:16.329Z,-7.86
2022-12-19T02:59:17.817Z,-7.73
2022-12-19T03:00:13.603Z,-7.78
2022-12-19T03:01:17.088Z,-7.87
2022-12-19T03:02:14.175Z,-7.94
2022-12-19T03:03:21.984Z,-7.83
2022-12-19T03:04:38.091Z,-7.89
2022-12-19T03:05:40.380Z,-7.93
2022-12-19T03:06:41.273Z,-7.83
2022-12-19T03:07:49.433Z,-7.71
2022-12-19T03:08:47.686Z,-7.81
2022-12-19T03:10:00.224Z,-7.84
2022-12-19T03:10:53.748Z,-7.64
2022-12-19T03:11:42.633Z,-7.61
2022-12-19T03:12:53.022Z,-7.70
2022-12-19T03:13:48.222Z,-7.66
2022-12-19T03:14:35.827Z,-7.54
2022-12-19T03:15:23.384Z,-7.58
2022-12-19T03:16:14.061Z,-7.58
2022-12-19T03:17:06.103Z,-7.44
2022-12-19T03:17:59.238Z,-7.31
2022-12-19T03:18:46.297Z,-7.29
2022-12-19T03:19:35.260Z,-7.35
2022-12-19T03:20:44.566Z,-7.28
2022-12-19T03:21:37.650Z,-7.34
2022-12-19T03:22:24.638Z,-7.35
2022-12-19T03:23:15.309Z,-7.21
2022-12-19T03:24:02.766Z,-7.16
2022-12-19T03:24:49.738Z,-7.11
2022-12-19T03:25:36.661Z,-7.14
2022-12-19T03:26:25.808Z,-7.06
2022-12-19T03:27:21.196Z,-7.00
2022-12-19T03:28:12.749Z,-7.06
2022-12-19T03:29:16.563Z,-7.11
2022-12-19T03:30:07.153Z,-7.06
2022-12-19T03:30:53.922Z,-7.07
2022-12-19T03:31:41.771Z,-7.12
2022-12-19T03:32:30.367Z,-7.06
2022-12-19T03:33:19.330Z,-7.16
2022-12-19T03:34:19.471Z,-7.01
2022-12-19T03:35:08.965Z,-7.02
2022-12-19T03:35:56.803Z,-7.10
2022-12-19T03:36:47.346Z,-6.88
2022-12-19T03:37:34.821Z,-6.86
2022-12-19T03:38:22.193Z,-6.82
2022-12-19T03:39:10.719Z,-6.83
2022-12-19T03:40:00.387Z,-6.75
2022-12-19T03:40:48.421Z,-6.81
2022-12-19T03:41:54.816Z,-6.94
2022-12-19T03:43:05.344Z,-6.86
2022-12-19T03:43:52.420Z,-6.75
2022-12-19T03:44:41.564Z,-6.81
2022-12-19T03:45:54.622Z,-6.71
2022-12-19T03:46:50.923Z,-6.66
2022-12-19T03:47:44.956Z,-6.58
2022-12-19T03:48:45.620Z,-6.47
2022-12-19T03:49:32.666Z,-6.42
2022-12-19T03:50:19.766Z,-6.41
2022-12-19T03:51:15.908Z,-6.40
2022-12-19T03:52:05.406Z,-6.33
2022-12-19T03:53:10.629Z,-6.29
2022-12-19T03:54:07.951Z,-6.25
2022-12-19T03:55:06.815Z,-6.20
2022-12-19T03:56:37.073Z,-6.16
2022-12-19T03:58:01.019Z,-6.11
2022-12-19T03:58:52.197Z,-6.03
2022-12-19T03:59:45.229Z,-5.95
2022-12-19T04:00:34.782Z,-5.82
2022-12-19T04:01:22.007Z,-5.75
2022-12-19T04:02:10.465Z,-5.66
2022-12-19T04:02:58.036Z,-5.68
2022-12-19T04:03:45.344Z,-5.67
2022-12-19T04:04:36.568Z,-5.58
2022-12-19T04:05:27.603Z,-5.57
2022-12-19T04:06:15.218Z,-5.55
2022-12-19T04:07:03.825Z,-5.49
2022-12-19T04:07:52.937Z,-5.46
2022-12-19T04:08:40.253Z,-5.45
2022-12-19T04:09:27.387Z,-5.47
2022-12-19T04:10:17.389Z,-5.42
2022-12-19T04:11:09.667Z,-5.26
2022-12-19T04:12:10.339Z,-5.29
2022-12-19T04:13:12.938Z,-5.20
2022-12-19T04:14:03.467Z,-5.16
2022-12-19T04:14:50.496Z,-5.16
2022-12-19T04:15:49.207Z,-5.08
2022-12-19T04:16:44.427Z,-5.05
2022-12-19T04:17:49.808Z,-5.05
2022-12-19T04:18:37.949Z,-5.02
2022-12-19T04:19:48.849Z,-5.08
2022-12-19T04:20:38.331Z,-5.10
2022-12-19T04:21:32.881Z,-5.10
2022-12-19T04:22:37.232Z,-5.06
2022-12-19T04:23:29.363Z,-5.01
2022-12-19T04:24:26.813Z,-5.01
2022-12-19T04:25:16.803Z,-4.89
2022-12-19T04:26:05.356Z,-4.85
2022-12-19T04:26:54.431Z,-4.88
2022-12-19T04:27:44.941Z,-4.92
2022-12-19T04:28:45.975Z,-4.84
2022-12-19T04:29:34.980Z,-4.82
2022-12-19T04:30:22.018Z,-4.77
2022-12-19T04:31:12.164Z,-4.66
2022-12-19T04:31:59.409Z,-4.63
2022-12-19T04:32:47.101Z,-4.58
2022-12-19T04:33:34.088Z,-4.55
2022-12-19T04:34:21.734Z,-4.47
2022-12-19T04:35:09.632Z,-4.49
2022-12-19T04:35:56.479Z,-4.45
2022-12-19T04:36:43.398Z,-4.43
2022-12-19T04:37:31.446Z,-4.33
2022-12-19T04:38:18.360Z,-4.26
2022-12-19T04:39:05.386Z,-4.26
2022-12-19T04:39:52.269Z,-4.37
2022-12-19T04:40:41.523Z,-4.35
2022-12-19T04:41:28.800Z,-4.33
2022-12-19T04:42:15.669Z,-4.29
2022-12-19T04:43:02.638Z,-4.24
2022-12-19T04:43:49.543Z,-4.28
2022-12-19T04:44:36.448Z,-4.25
2022-12-19T04:45:23.404Z,-4.32
2022-12-19T04:46:10.689Z,-4.32
2022-12-19T04:46:57.627Z,-4.32
2022-12-19T04:47:44.559Z,-4.28
2022-12-19T04:48:31.511Z,-4.27
2022-12-19T04:49:18.570Z,-4.17
2022-12-19T04:50:06.255Z,-4.11
2022-12-19T04:50:53.260Z,-4.02
2022-12-19T04:51:40.148Z,-3.99
2022-12-19T04:52:27.059Z,-3.97
2022-12-19T04:53:14.028Z,-3.95
2022-12-19T04:54:00.985Z,-3.94
2022-12-19T04:54:47.946Z,-3.97
2022-12-19T04:55:34.949Z,-3.96
2022-12-19T04:56:21.853Z,-3.91
2022-12-19T04:57:08.887Z,-3.89
2022-12-19T04:57:55.856Z,-3.88
2022-12-19T04:58:42.849Z,-3.92
2022-12-19T04:59:32.188Z,-3.92
2022-12-19T05:00:19.199Z,-3.92
2022-12-19T05:01:07.698Z,-3.75
2022-12-19T05:01:54.823Z,-3.67
2022-12-19T05:02:42.125Z,-3.66
2022-12-19T05:03:29.289Z,-3.65
2022-12-19T05:04:16.245Z,-3.57
2022-12-19T05:05:03.318Z,-3.61
2022-12-19T05:05:50.216Z,-3.62
2022-12-19T05:06:37.379Z,-3.61
2022-12-19T05:07:24.318Z,-3.62
2022-12-19T05:08:11.206Z,-3.53
2022-12-19T05:08:58.246Z,-3.53
2022-12-19T05:09:45.120Z,-3.52
2022-12-19T05:10:32.082Z,-3.45
2022-12-19T05:11:20.089Z,-3.53
2022-12-19T05:12:07.300Z,-3.45
2022-12-19T05:12:55.146Z,-3.43
2022-12-19T05:13:42.236Z,-3.44
2022-12-19T05:14:29.160Z,-3.54
2022-12-19T05:15:16.404Z,-3.47
2022-12-19T05:16:05.871Z,-3.44
2022-12-19T05:16:57.226Z,-3.44
2022-12-19T05:17:47.447Z,-3.37
2022-12-19T05:18:34.738Z,-3.34
2022-12-19T05:19:24.487Z,-3.37
2022-12-19T05:20:11.899Z,-3.38
2022-12-19T05:20:59.136Z,-3.33
2022-12-19T05:21:46.016Z,-3.32
2022-12-19T05:22:33.135Z,-3.33
2022-12-19T05:23:20.528Z,-3.35
2022-12-19T05:24:07.747Z,-3.29
2022-12-19T05:24:54.686Z,-3.24
2022-12-19T05:25:41.545Z,-3.20
2022-12-19T05:26:28.430Z,-3.19
2022-12-19T05:27:15.428Z,-3.20
2022-12-19T05:28:02.306Z,-3.18
2022-12-19T05:28:49.206Z,-3.13
2022-12-19T05:29:36.076Z,-2.99
2022-12-19T05:30:24.726Z,-2.93
2022-12-19T05:31:14.418Z,-2.96
2022-12-19T05:32:02.096Z,-3.03
2022-12-19T05:32:48.975Z,-3.15
2022-12-19T05:33:36.422Z,-3.18
2022-12-19T05:34:24.639Z,-3.17
2022-12-19T05:35:11.636Z,-3.21
2022-12-19T05:35:58.676Z,-3.17
2022-12-19T05:36:46.895Z,-3.18
2022-12-19T05:37:33.776Z,-3.13
2022-12-19T05:38:20.689Z,-3.09
2022-12-19T05:39:07.546Z,-3.11
2022-12-19T05:39:54.466Z,-3.20
2022-12-19T05:40:42.767Z,-3.12
2022-12-19T05:41:29.724Z,-3.10
2022-12-19T05:42:16.543Z,-3.11
2022-12-19T05:43:03.489Z,-3.11
2022-12-19T05:43:52.818Z,-3.12
2022-12-19T05:44:40.004Z,-3.05
2022-12-19T05:45:26.906Z,-3.07
2022-12-19T05:46:13.917Z,-3.11
2022-12-19T05:47:00.905Z,-3.14
2022-12-19T05:47:48.174Z,-3.19
2022-12-19T05:48:35.562Z,-3.14
2022-12-19T05:49:22.418Z,-3.16
2022-12-19T05:50:09.965Z,-3.15
2022-12-19T05:50:56.914Z,-3.09
2022-12-19T05:51:46.986Z,-3.15
2022-12-19T05:52:33.875Z,-3.16
2022-12-19T05:53:25.755Z,-3.12
2022-12-19T05:54:13.105Z,-3.05
2022-12-19T05:55:00.263Z,-3.01
2022-12-19T05:55:47.126Z,-3.14
2022-12-19T05:56:34.031Z,-3.09
2022-12-19T05:57:20.911Z,-3.05
2022-12-19T05:58:07.782Z,-2.96
2022-12-19T05:58:54.906Z,-2.94
2022-12-19T05:59:41.902Z,-3.06
2022-12-19T06:00:28.805Z,-3.07
2022-12-19T06:01:18.553Z,-3.06
2022-12-19T06:02:05.639Z,-3.14
2022-12-19T06:02:52.659Z,-3.05
2022-12-19T06:03:39.950Z,-3.09
2022-12-19T06:04:26.853Z,-3.02
2022-12-19T06:05:14.086Z,-2.97
2022-12-19T06:06:09.672Z,-3.07
2022-12-19T06:06:56.591Z,-3.10
2022-12-19T06:07:43.496Z,-3.19
2022-12-19T06:08:30.462Z,-3.23
2022-12-19T06:09:17.360Z,-3.24
2022-12-19T06:10:04.847Z,-3.13
2022-12-19T06:10:51.813Z,-3.18
2022-12-19T06:11:38.719Z,-3.14
2022-12-19T06:12:25.660Z,-3.17
2022-12-19T06:13:12.520Z,-3.12
2022-12-19T06:13:59.469Z,-3.18
2022-12-19T06:14:46.362Z,-3.22
2022-12-19T06:15:33.285Z,-3.20
2022-12-19T06:16:21.644Z,-3.15
2022-12-19T06:17:08.604Z,-3.21
2022-12-19T06:17:55.562Z,-3.23
2022-12-19T06:18:45.035Z,-3.13
2022-12-19T06:19:32.281Z,-3.14
2022-12-19T06:20:19.181Z,-3.19
2022-12-19T06:21:08.043Z,-3.18
2022-12-19T06:21:54.982Z,-3.17
2022-12-19T06:22:44.631Z,-3.21
2022-12-19T06:23:33.243Z,-3.07
2022-12-19T06:24:20.132Z,-3.13
2022-12-19T06:25:07.964Z,-3.17
2022-12-19T06:25:57.623Z,-3.07
2022-12-19T06:26:45.020Z,-3.04
2022-12-19T06:27:31.908Z,-3.06
2022-12-19T06:28:18.861Z,-3.13
2022-12-19T06:29:05.763Z,-3.09
2022-12-19T06:29:52.724Z,-3.11
2022-12-19T06:30:39.610Z,-3.12
2022-12-19T06:31:26.615Z,-3.18
2022-12-19T06:32:13.554Z,-3.17
2022-12-19T06:33:01.198Z,-3.15
2022-12-19T06:33:48.093Z,-3.09
2022-12-19T06:35:04.661Z,-3.14
2022-12-19T06:35:42.298Z,-2.99
2022-12-19T06:36:30.781Z,-3.10
2022-12-19T06:37:17.783Z,-3.06
2022-12-19T06:38:04.687Z,-2.98
2022-12-19T06:38:51.998Z,-2.93
2022-12-19T06:39:38.948Z,-3.05
2022-12-19T06:40:44.730Z,-3.08
2022-12-19T06:41:50.573Z,-3.04
2022-12-19T06:42:37.512Z,-3.02
2022-12-19T06:43:26.005Z,-2.98
2022-12-19T06:44:14.667Z,-2.98
2022-12-19T06:45:01.630Z,-2.97
2022-12-19T06:45:48.529Z,-3.01
2022-12-19T06:46:35.434Z,-2.96
2022-12-19T06:47:23.324Z,-2.94
2022-12-19T06:48:10.252Z,-2.86
2022-12-19T06:49:00.015Z,-2.93
2022-12-19T06:49:47.034Z,-3.02
2022-12-19T06:50:36.111Z,-3.09
2022-12-19T06:51:23.462Z,-3.04
2022-12-19T06:52:10.321Z,-3.07
2022-12-19T06:52:57.190Z,-3.13
2022-12-19T06:53:44.187Z,-3.16
2022-12-19T06:54:31.674Z,-3.00
2022-12-19T06:55:18.910Z,-2.97
2022-12-19T06:56:06.120Z,-2.97
2022-12-19T06:56:53.021Z,-2.91
2022-12-19T06:57:46.186Z,-2.89
2022-12-19T06:58:33.787Z,-2.85
2022-12-19T06:59:20.818Z,-2.83
2022-12-19T07:00:08.498Z,-2.80
2022-12-19T07:00:55.502Z,-2.70
2022-12-19T07:01:48.589Z,-2.71
2022-12-19T07:02:35.586Z,-2.68
2022-12-19T07:03:26.048Z,-2.74
2022-12-19T07:04:16.100Z,-2.77
2022-12-19T07:05:04.731Z,-2.85
2022-12-19T07:05:51.700Z,-2.72
2022-12-19T07:06:38.978Z,-2.67
2022-12-19T07:07:25.883Z,-2.65
2022-12-19T07:08:12.793Z,-2.66
2022-12-19T07:09:00.321Z,-2.62
2022-12-19T07:09:47.229Z,-2.62
2022-12-19T07:10:34.233Z,-2.54
2022-12-19T07:11:21.118Z,-2.51
2022-12-19T07:12:10.177Z,-2.36
2022-12-19T07:12:57.078Z,-2.26
2022-12-19T07:13:43.988Z,-2.31
2022-12-19T07:14:31.007Z,-2.24
2022-12-19T07:15:17.876Z,-2.11
2022-12-19T07:16:05.842Z,-2.12
2022-12-19T07:16:53.733Z,-2.10
2022-12-19T07:17:40.843Z,-2.09
2022-12-19T07:18:29.540Z,-2.05
2022-12-19T07:19:16.736Z,-1.96
2022-12-19T07:20:03.968Z,-2.00
2022-12-19T07:20:50.998Z,-2.02
2022-12-19T07:21:38.383Z,-2.02
2022-12-19T07:22:27.749Z,-2.06
2022-12-19T07:23:19.701Z,-2.09
2022-12-19T07:24:07.494Z,-1.96
2022-12-19T07:24:56.325Z,-1.88
2022-12-19T07:25:43.279Z,-1.88
2022-12-19T07:26:30.296Z,-1.87
2022-12-19T07:27:17.191Z,-1.83
2022-12-19T07:28:51.417Z,-1.83
2022-12-19T07:29:38.291Z,-1.75
2022-12-19T07:30:25.189Z,-1.76
2022-12-19T07:31:12.852Z,-1.67
2022-12-19T07:31:59.961Z,-1.73
2022-12-19T07:32:46.851Z,-1.74
2022-12-19T07:33:34.045Z,-1.64
2022-12-19T07:34:20.976Z,-1.64
2022-12-19T07:35:08.371Z,-1.62
2022-12-19T07:35:55.291Z,-1.61
2022-12-19T07:36:42.207Z,-1.61
2022-12-19T07:37:29.128Z,-1.49
2022-12-19T07:38:16.415Z,-1.42
2022-12-19T07:39:03.400Z,-1.35
2022-12-19T07:39:50.571Z,-1.30
2022-12-19T07:40:37.503Z,-1.30
2022-12-19T07:41:24.446Z,-1.30
2022-12-19T07:42:12.355Z,-1.26
2022-12-19T07:43:03.574Z,-1.24
2022-12-19T07:43:50.476Z,-1.26
2022-12-19T07:44:37.394Z,-1.18
2022-12-19T07:45:24.297Z,-1.19
2022-12-19T07:46:11.466Z,-1.13
2022-12-19T07:46:58.413Z,-1.06
2022-12-19T07:47:45.386Z,-1.17
2022-12-19T07:48:32.290Z,-1.06
2022-12-19T07:49:22.622Z,-1.01
2022-12-19T07:50:09.891Z,-1.03
2022-12-19T07:50:56.789Z,-0.97
2022-12-19T07:51:43.708Z,-1.00
2022-12-19T07:52:30.657Z,-1.05
2022-12-19T07:53:17.592Z,-1.10
2022-12-19T07:54:08.257Z,-1.05
2022-12-19T07:54:54.997Z,-1.04
2022-12-19T07:55:42.240Z,-0.96
2022-12-19T07:56:29.138Z,-0.92
2022-12-19T07:57:16.185Z,-0.96
2022-12-19T07:58:03.257Z,-0.92
2022-12-19T07:58:50.248Z,-0.95
2022-12-19T07:59:39.414Z,-0.94
2022-12-19T08:00:26.444Z,-0.98
2022-12-19T08:01:13.489Z,-0.93
2022-12-19T08:02:00.621Z,-0.84
2022-12-19T08:02:48.159Z,-0.73
2022-12-19T08:03:36.177Z,-0.66
2022-12-19T08:04:23.226Z,-0.54
2022-12-19T08:05:10.440Z,-0.59
2022-12-19T08:06:05.480Z,-0.60
2022-12-19T08:06:52.361Z,-0.58
2022-12-19T08:07:39.291Z,-0.56
2022-12-19T08:08:26.418Z,-0.49
2022-12-19T08:09:13.719Z,-0.45
2022-12-19T08:10:00.790Z,-0.43
2022-12-19T08:10:47.756Z,-0.37
2022-12-19T08:11:34.741Z,-0.40
2022-12-19T08:12:21.744Z,-0.45
2022-12-19T08:13:09.246Z,-0.44
2022-12-19T08:13:57.366Z,-0.57
2022-12-19T08:14:44.870Z,-0.62
2022-12-19T08:15:31.855Z,-0.52
2022-12-19T08:16:18.833Z,-0.40
2022-12-19T08:17:21.778Z,-0.35
2022-12-19T08:18:08.904Z,-0.18
2022-12-19T08:18:55.974Z,-0.34
2022-12-19T08:19:43.060Z,-0.51
2022-12-19T08:20:30.395Z,-0.44
2022-12-19T08:21:17.382Z,-0.48
2022-12-19T08:22:04.305Z,-0.51
2022-12-19T08:22:51.724Z,-0.47
2022-12-19T08:23:41.606Z,-0.46
2022-12-19T08:24:31.118Z,-0.43
2022-12-19T08:25:17.992Z,-0.50
2022-12-19T08:26:07.603Z,-0.40
2022-12-19T08:26:54.556Z,-0.34
2022-12-19T08:27:43.026Z,-0.34
2022-12-19T08:28:30.946Z,-0.25
2022-12-19T08:29:17.864Z,-0.25
2022-12-19T08:30:05.265Z,-0.19
2022-12-19T08:30:52.334Z,-0.08
2022-12-19T08:31:39.286Z,-0.50
2022-12-19T08:32:26.227Z,-0.55
2022-12-19T08:33:13.200Z,-0.49
2022-12-19T08:34:00.205Z,-0.33
2022-12-19T08:34:47.149Z,-0.16
2022-12-19T08:35:34.205Z,-0.20
2022-12-19T08:36:21.305Z,-0.13
2022-12-19T08:37:08.976Z,-0.14
2022-12-19T08:37:55.878Z,-0.18
2022-12-19T08:38:42.829Z,-0.10
2022-12-19T08:39:29.736Z,-0.18
2022-12-19T08:40:16.685Z,-0.10
2022-12-19T08:41:04.448Z,-0.14
2022-12-19T08:41:51.425Z,-0.14
2022-12-19T08:42:38.297Z,-0.36
2022-12-19T08:43:25.531Z,-0.37
2022-12-19T08:44:13.521Z,-0.29
2022-12-19T08:45:00.430Z,-0.24
2022-12-19T08:45:50.640Z,-0.12
2022-12-19T08:46:37.646Z,-0.35
2022-12-19T08:47:24.671Z,-0.53
2022-12-19T08:48:11.758Z,-0.52
2022-12-19T08:48:58.641Z,-0.52
2022-12-19T08:49:46.901Z,-0.47
2022-12-19T08:50:33.779Z,-0.35
2022-12-19T08:51:22.145Z,-0.38
2022-12-19T08:52:09.020Z,-0.27
2022-12-19T08:52:56.055Z,-0.11
2022-12-19T08:53:44.316Z,-0.05
2022-12-19T08:54:31.212Z,-0.17
2022-12-19T08:55:18.259Z,-0.15
2022-12-19T08:56:17.077Z,-0.06
2022-12-19T08:57:04.139Z,-0.07
2022-12-19T08:57:51.016Z,0.03
2022-12-19T08:58:38.007Z,0.14
2022-12-19T08:59:31.622Z,0.16
2022-12-19T09:00:19.235Z,0.10
2022-12-19T09:01:13.646Z,-0.01
2022-12-19T09:02:01.305Z,0.04
2022-12-19T09:02:48.611Z,0.04
2022-12-19T09:03:45.851Z,-0.04
2022-12-19T09:06:00.334Z,-0.10
2022-12-19T09:06:07.023Z,0.02
2022-12-19T09:06:57.360Z,-0.03
2022-12-19T09:07:44.307Z,0.02
2022-12-19T09:08:32.360Z,0.09
2022-12-19T09:09:19.257Z,-0.07
2022-12-19T09:10:06.587Z,-0.16
2022-12-19T09:11:05.935Z,-0.10
2022-12-19T09:11:52.881Z,0.01
2022-12-19T09:12:39.902Z,-0.07
2022-12-19T09:13:30.510Z,0.12
2022-12-19T09:14:21.292Z,0.12
2022-12-19T09:15:08.923Z,-0.01
2022-12-19T09:16:07.189Z,0.02
2022-12-19T09:16:54.137Z,-0.09
2022-12-19T09:17:41.077Z,0.05
2022-12-19T09:18:28.916Z,0.04
2022-12-19T09:19:16.680Z,-0.09
2022-12-19T09:20:03.778Z,-0.20
2022-12-19T09:20:54.281Z,-0.08
2022-12-19T09:21:41.390Z,-0.10
2022-12-19T09:22:29.556Z,0.03
2022-12-19T09:23:16.621Z,-0.23
2022-12-19T09:24:07.925Z,-0.23
2022-12-19T09:24:55.447Z,-0.08
2022-12-19T09:25:42.326Z,0.08
2022-12-19T09:26:29.198Z,0.01
2022-12-19T09:27:20.753Z,-0.11
2022-12-19T09:29:20.749Z,-0.04
2022-12-19T09:30:09.246Z,-0.11
2022-12-19T09:31:08.426Z,0.08
2022-12-19T09:31:57.053Z,0.15
2022-12-19T09:32:44.218Z,-0.02
2022-12-19T09:33:35.490Z,-0.01
2022-12-19T09:34:36.956Z,0.15
2022-12-19T09:35:30.035Z,-0.10
2022-12-19T09:36:24.516Z,-0.09
2022-12-19T09:37:16.847Z,-0.31
2022-12-19T09:38:06.752Z,-0.30
2022-12-19T09:38:55.038Z,-0.14
2022-12-19T09:39:42.070Z,0.07
2022-12-19T09:40:31.784Z,0.17
2022-12-19T09:41:52.630Z,0.24
2022-12-19T09:42:46.673Z,0.23
2022-12-19T09:43:41.253Z,0.29
2022-12-19T09:44:40.776Z,0.30
2022-12-19T09:45:36.643Z,0.19
2022-12-19T09:47:09.690Z,0.07
2022-12-19T09:47:59.036Z,0.19
2022-12-19T09:48:50.922Z,0.29
2022-12-19T09:49:44.208Z,0.06
2022-12-19T09:50:31.031Z,0.08
2022-12-19T09:51:36.020Z,0.29
2022-12-19T09:52:32.856Z,0.25
2022-12-19T09:53:33.756Z,0.06
2022-12-19T09:54:28.358Z,-0.06
2022-12-19T09:55:41.723Z,-0.17
2022-12-19T09:56:33.093Z,-0.05
2022-12-19T09:58:08.760Z,0.11
2022-12-19T09:59:01.175Z,0.27
2022-12-19T10:00:21.504Z,0.39
2022-12-19T10:01:21.561Z,0.34
2022-12-19T10:02:36.835Z,0.34
2022-12-19T10:03:40.346Z,0.50
2022-12-19T10:04:28.644Z,0.59
2022-12-19T10:07:11.875Z,0.54
2022-12-19T10:07:11.921Z,0.52
2022-12-19T10:08:10.379Z,0.76
2022-12-19T10:09:46.329Z,0.59
2022-12-19T10:12:34.812Z,0.32
2022-12-19T10:12:42.573Z,0.52
2022-12-19T10:13:13.275Z,0.57
2022-12-19T10:14:28.070Z,0.63
2022-12-19T10:15:32.263Z,0.64
2022-12-19T10:16:25.075Z,0.67
2022-12-19T10:17:25.353Z,0.50
2022-12-19T10:18:31.037Z,0.35
2022-12-19T10:19:27.549Z,0.59
2022-12-19T10:20:41.009Z,0.63
2022-12-19T10:22:07.399Z,0.54
2022-12-19T10:22:50.300Z,0.63
2022-12-19T10:23:48.669Z,0.31
2022-12-19T10:25:09.393Z,0.45
2022-12-19T10:26:19.546Z,0.45
2022-12-19T10:27:59.456Z,0.56
2022-12-19T10:28:54.719Z,0.65
2022-12-19T10:30:10.156Z,0.98
2022-12-19T10:31:22.048Z,1.07
2022-12-19T10:32:51.452Z,0.78
2022-12-19T10:33:52.445Z,0.55
2022-12-19T10:34:44.422Z,0.68
2022-12-19T10:35:35.050Z,0.61
2022-12-19T10:36:42.011Z,0.64
2022-12-19T10:37:47.320Z,0.79
2022-12-19T10:38:51.242Z,0.73
2022-12-19T10:39:53.812Z,0.44
2022-12-19T10:40:53.971Z,0.54
2022-12-19T10:41:44.219Z,0.46
2022-12-19T10:42:51.824Z,0.49
2022-12-19T10:44:02.870Z,0.49
2022-12-19T10:44:49.639Z,0.42
2022-12-19T10:45:47.424Z,0.45
2022-12-19T10:46:40.532Z,0.41
2022-12-19T10:47:29.897Z,0.35
2022-12-19T10:48:21.988Z,0.50
2022-12-19T10:49:22.247Z,0.64
2022-12-19T10:50:22.439Z,0.81
2022-12-19T10:51:23.337Z,0.63
2022-12-19T10:52:11.780Z,0.70
2022-12-19T10:53:04.716Z,0.73
2022-12-19T10:53:57.409Z,0.79
2022-12-19T10:54:44.390Z,0.91
2022-12-19T10:55:40.619Z,0.74
2022-12-19T10:56:36.797Z,0.61
2022-12-19T10:57:29.334Z,0.86
2022-12-19T10:58:21.888Z,0.98
2022-12-19T10:59:17.127Z,0.99
2022-12-19T11:00:20.379Z,0.99
2022-12-19T11:01:23.293Z,0.79
2022-12-19T11:02:41.965Z,0.74
2022-12-19T11:03:34.905Z,0.44
2022-12-19T11:04:30.269Z,0.43